sensor_id;sensor_type;location;lat;lon;timestamp;P1;durP1;ratioP1;P2;durP2;ratioP2
47335;SDS011;33068;51.990;5.926;2023-08-08T00:02:00;11.25;;;7.45;;
47335;SDS011;33068;51.990;5.926;2023-08-08T00:04:26;17.27;;;7.97;;
47335;SDS011;33068;51.990;5.926;2023-08-08T00:06:53;17.48;;;8.40;;
47335;SDS011;33068;51.990;5.926;2023-08-08T00:09:19;14.38;;;7.85;;
47335;SDS011;33068;51.990;5.926;2023-08-08T00:11:46;14.82;;;8.05;;
47335;SDS011;33068;51.990;5.926;2023-08-08T00:14:13;14.63;;;9.43;;
47335;SDS011;33068;51.990;5.926;2023-08-08T00:16:40;11.40;;;7.38;;
47335;SDS011;33068;51.990;5.926;2023-08-08T00:19:07;13.55;;;8.77;;
47335;SDS011;33068;51.990;5.926;2023-08-08T00:21:33;16.08;;;8.60;;
47335;SDS011;33068;51.990;5.926;2023-08-08T00:24:00;17.55;;;7.72;;
47335;SDS011;33068;51.990;5.926;2023-08-08T00:26:27;17.77;;;8.52;;
47335;SDS011;33068;51.990;5.926;2023-08-08T00:28:53;13.80;;;8.98;;
47335;SDS011;33068;51.990;5.926;2023-08-08T00:31:20;17.73;;;9.65;;
47335;SDS011;33068;51.990;5.926;2023-08-08T00:33:46;14.15;;;8.13;;
47335;SDS011;33068;51.990;5.926;2023-08-08T00:36:12;20.33;;;8.98;;
47335;SDS011;33068;51.990;5.926;2023-08-08T00:38:39;16.08;;;9.85;;
47335;SDS011;33068;51.990;5.926;2023-08-08T00:41:06;19.02;;;9.48;;
47335;SDS011;33068;51.990;5.926;2023-08-08T00:43:33;16.92;;;9.50;;
47335;SDS011;33068;51.990;5.926;2023-08-08T00:45:59;14.45;;;9.63;;
47335;SDS011;33068;51.990;5.926;2023-08-08T00:48:26;14.25;;;8.30;;
47335;SDS011;33068;51.990;5.926;2023-08-08T00:50:52;18.23;;;8.88;;
47335;SDS011;33068;51.990;5.926;2023-08-08T00:53:19;19.40;;;9.50;;
47335;SDS011;33068;51.990;5.926;2023-08-08T00:55:47;16.77;;;9.70;;
47335;SDS011;33068;51.990;5.926;2023-08-08T00:58:15;15.43;;;9.10;;
47335;SDS011;33068;51.990;5.926;2023-08-08T01:00:44;20.10;;;10.95;;
47335;SDS011;33068;51.990;5.926;2023-08-08T01:05:43;22.77;;;10.63;;
47335;SDS011;33068;51.990;5.926;2023-08-08T01:08:15;12.45;;;8.05;;
47335;SDS011;33068;51.990;5.926;2023-08-08T01:10:44;15.43;;;8.90;;
47335;SDS011;33068;51.990;5.926;2023-08-08T01:13:13;16.85;;;9.13;;
47335;SDS011;33068;51.990;5.926;2023-08-08T01:15:43;16.02;;;8.80;;
47335;SDS011;33068;51.990;5.926;2023-08-08T01:18:11;16.35;;;9.00;;
47335;SDS011;33068;51.990;5.926;2023-08-08T01:20:40;17.40;;;9.75;;
47335;SDS011;33068;51.990;5.926;2023-08-08T01:23:09;18.40;;;10.32;;
47335;SDS011;33068;51.990;5.926;2023-08-08T01:25:40;19.42;;;9.57;;
47335;SDS011;33068;51.990;5.926;2023-08-08T01:28:08;16.02;;;9.35;;
47335;SDS011;33068;51.990;5.926;2023-08-08T01:30:34;22.92;;;11.82;;
47335;SDS011;33068;51.990;5.926;2023-08-08T01:33:01;23.77;;;12.25;;
47335;SDS011;33068;51.990;5.926;2023-08-08T01:35:29;17.33;;;9.88;;
47335;SDS011;33068;51.990;5.926;2023-08-08T01:37:59;23.42;;;11.43;;
47335;SDS011;33068;51.990;5.926;2023-08-08T01:40:30;21.30;;;10.93;;
47335;SDS011;33068;51.990;5.926;2023-08-08T01:43:01;23.63;;;11.38;;
47335;SDS011;33068;51.990;5.926;2023-08-08T01:45:30;21.08;;;10.18;;
47335;SDS011;33068;51.990;5.926;2023-08-08T01:47:57;18.88;;;10.93;;
47335;SDS011;33068;51.990;5.926;2023-08-08T01:50:23;27.85;;;12.10;;
47335;SDS011;33068;51.990;5.926;2023-08-08T01:52:50;19.92;;;11.32;;
47335;SDS011;33068;51.990;5.926;2023-08-08T01:55:19;20.42;;;10.38;;
47335;SDS011;33068;51.990;5.926;2023-08-08T01:57:45;20.88;;;9.88;;
47335;SDS011;33068;51.990;5.926;2023-08-08T02:00:12;23.42;;;11.15;;
47335;SDS011;33068;51.990;5.926;2023-08-08T02:02:42;28.98;;;11.88;;
47335;SDS011;33068;51.990;5.926;2023-08-08T02:05:08;23.27;;;10.30;;
47335;SDS011;33068;51.990;5.926;2023-08-08T02:07:35;17.05;;;9.60;;
47335;SDS011;33068;51.990;5.926;2023-08-08T02:10:01;21.75;;;9.98;;
47335;SDS011;33068;51.990;5.926;2023-08-08T02:12:29;19.25;;;9.77;;
47335;SDS011;33068;51.990;5.926;2023-08-08T02:14:55;18.63;;;10.23;;
47335;SDS011;33068;51.990;5.926;2023-08-08T02:17:23;17.08;;;9.65;;
47335;SDS011;33068;51.990;5.926;2023-08-08T02:19:50;21.70;;;9.80;;
47335;SDS011;33068;51.990;5.926;2023-08-08T02:22:28;24.48;;;9.85;;
47335;SDS011;33068;51.990;5.926;2023-08-08T02:25:04;16.42;;;9.52;;
47335;SDS011;33068;51.990;5.926;2023-08-08T02:27:37;23.05;;;9.85;;
47335;SDS011;33068;51.990;5.926;2023-08-08T02:30:13;25.75;;;9.18;;
47335;SDS011;33068;51.990;5.926;2023-08-08T02:32:48;19.33;;;9.52;;
47335;SDS011;33068;51.990;5.926;2023-08-08T02:35:15;19.80;;;9.13;;
47335;SDS011;33068;51.990;5.926;2023-08-08T02:37:41;17.40;;;8.93;;
47335;SDS011;33068;51.990;5.926;2023-08-08T02:40:08;25.40;;;8.98;;
47335;SDS011;33068;51.990;5.926;2023-08-08T02:42:35;25.10;;;9.93;;
47335;SDS011;33068;51.990;5.926;2023-08-08T02:45:02;23.95;;;9.93;;
47335;SDS011;33068;51.990;5.926;2023-08-08T02:47:29;23.52;;;8.27;;
47335;SDS011;33068;51.990;5.926;2023-08-08T02:49:56;15.32;;;8.98;;
47335;SDS011;33068;51.990;5.926;2023-08-08T02:52:23;24.65;;;10.30;;
47335;SDS011;33068;51.990;5.926;2023-08-08T02:54:50;19.67;;;8.05;;
47335;SDS011;33068;51.990;5.926;2023-08-08T02:57:16;20.60;;;8.82;;
47335;SDS011;33068;51.990;5.926;2023-08-08T02:59:43;18.70;;;9.38;;
47335;SDS011;33068;51.990;5.926;2023-08-08T03:02:09;20.20;;;8.65;;
47335;SDS011;33068;51.990;5.926;2023-08-08T03:04:38;17.90;;;9.50;;
47335;SDS011;33068;51.990;5.926;2023-08-08T03:07:07;14.68;;;8.10;;
47335;SDS011;33068;51.990;5.926;2023-08-08T03:09:35;16.70;;;8.48;;
47335;SDS011;33068;51.990;5.926;2023-08-08T03:12:01;26.77;;;8.75;;
47335;SDS011;33068;51.990;5.926;2023-08-08T03:14:30;19.38;;;8.88;;
47335;SDS011;33068;51.990;5.926;2023-08-08T03:16:59;15.70;;;9.30;;
47335;SDS011;33068;51.990;5.926;2023-08-08T03:19:25;15.30;;;8.80;;
47335;SDS011;33068;51.990;5.926;2023-08-08T03:21:52;21.00;;;9.90;;
47335;SDS011;33068;51.990;5.926;2023-08-08T03:24:20;23.40;;;10.35;;
47335;SDS011;33068;51.990;5.926;2023-08-08T03:26:47;19.27;;;11.00;;
47335;SDS011;33068;51.990;5.926;2023-08-08T03:29:13;20.05;;;9.77;;
47335;SDS011;33068;51.990;5.926;2023-08-08T03:31:44;25.50;;;12.57;;
47335;SDS011;33068;51.990;5.926;2023-08-08T03:34:12;27.63;;;12.18;;
47335;SDS011;33068;51.990;5.926;2023-08-08T03:36:40;23.45;;;12.57;;
47335;SDS011;33068;51.990;5.926;2023-08-08T03:39:07;27.40;;;12.80;;
47335;SDS011;33068;51.990;5.926;2023-08-08T03:41:34;35.25;;;14.18;;
47335;SDS011;33068;51.990;5.926;2023-08-08T03:44:01;30.10;;;12.60;;
47335;SDS011;33068;51.990;5.926;2023-08-08T03:46:29;31.55;;;14.55;;
47335;SDS011;33068;51.990;5.926;2023-08-08T03:48:56;26.80;;;14.20;;
47335;SDS011;33068;51.990;5.926;2023-08-08T03:51:22;30.02;;;14.10;;
47335;SDS011;33068;51.990;5.926;2023-08-08T03:53:48;33.42;;;15.20;;
47335;SDS011;33068;51.990;5.926;2023-08-08T03:56:15;27.10;;;14.75;;
47335;SDS011;33068;51.990;5.926;2023-08-08T03:58:42;28.42;;;14.48;;
47335;SDS011;33068;51.990;5.926;2023-08-08T04:01:09;35.60;;;14.18;;
47335;SDS011;33068;51.990;5.926;2023-08-08T04:03:36;31.23;;;13.05;;
47335;SDS011;33068;51.990;5.926;2023-08-08T04:06:03;35.35;;;16.05;;
47335;SDS011;33068;51.990;5.926;2023-08-08T04:08:31;36.13;;;14.13;;
47335;SDS011;33068;51.990;5.926;2023-08-08T04:10:58;29.42;;;13.55;;
47335;SDS011;33068;51.990;5.926;2023-08-08T04:13:24;27.00;;;13.05;;
47335;SDS011;33068;51.990;5.926;2023-08-08T04:15:51;31.13;;;13.70;;
47335;SDS011;33068;51.990;5.926;2023-08-08T04:18:18;32.25;;;16.38;;
47335;SDS011;33068;51.990;5.926;2023-08-08T04:20:45;41.35;;;15.20;;
47335;SDS011;33068;51.990;5.926;2023-08-08T04:23:12;26.65;;;14.00;;
47335;SDS011;33068;51.990;5.926;2023-08-08T04:25:38;30.58;;;15.13;;
47335;SDS011;33068;51.990;5.926;2023-08-08T04:28:05;37.33;;;14.48;;
47335;SDS011;33068;51.990;5.926;2023-08-08T04:30:31;33.70;;;14.77;;
47335;SDS011;33068;51.990;5.926;2023-08-08T04:32:58;30.20;;;15.13;;
47335;SDS011;33068;51.990;5.926;2023-08-08T04:35:25;29.25;;;13.65;;
47335;SDS011;33068;51.990;5.926;2023-08-08T04:37:51;33.83;;;14.45;;
47335;SDS011;33068;51.990;5.926;2023-08-08T04:40:18;28.35;;;13.00;;
47335;SDS011;33068;51.990;5.926;2023-08-08T04:42:44;21.73;;;13.68;;
47335;SDS011;33068;51.990;5.926;2023-08-08T04:45:11;40.20;;;16.83;;
47335;SDS011;33068;51.990;5.926;2023-08-08T04:47:38;31.45;;;13.30;;
47335;SDS011;33068;51.990;5.926;2023-08-08T04:50:05;34.40;;;14.73;;
47335;SDS011;33068;51.990;5.926;2023-08-08T04:52:32;36.95;;;15.52;;
47335;SDS011;33068;51.990;5.926;2023-08-08T04:54:59;36.67;;;15.90;;
47335;SDS011;33068;51.990;5.926;2023-08-08T04:57:25;32.63;;;16.15;;
47335;SDS011;33068;51.990;5.926;2023-08-08T04:59:52;34.55;;;16.10;;
47335;SDS011;33068;51.990;5.926;2023-08-08T05:02:18;36.60;;;15.70;;
47335;SDS011;33068;51.990;5.926;2023-08-08T05:04:46;34.55;;;14.40;;
47335;SDS011;33068;51.990;5.926;2023-08-08T05:07:13;36.63;;;15.68;;
47335;SDS011;33068;51.990;5.926;2023-08-08T05:09:39;27.92;;;13.88;;
47335;SDS011;33068;51.990;5.926;2023-08-08T05:12:06;34.67;;;13.93;;
47335;SDS011;33068;51.990;5.926;2023-08-08T05:14:33;38.13;;;16.42;;
47335;SDS011;33068;51.990;5.926;2023-08-08T05:17:02;37.42;;;16.02;;
47335;SDS011;33068;51.990;5.926;2023-08-08T05:19:28;41.30;;;17.30;;
47335;SDS011;33068;51.990;5.926;2023-08-08T05:21:55;35.88;;;15.77;;
47335;SDS011;33068;51.990;5.926;2023-08-08T05:24:22;39.40;;;18.48;;
47335;SDS011;33068;51.990;5.926;2023-08-08T05:26:48;35.70;;;17.33;;
47335;SDS011;33068;51.990;5.926;2023-08-08T05:29:15;34.00;;;17.80;;
47335;SDS011;33068;51.990;5.926;2023-08-08T05:31:41;37.20;;;15.27;;
47335;SDS011;33068;51.990;5.926;2023-08-08T05:34:14;37.55;;;15.95;;
47335;SDS011;33068;51.990;5.926;2023-08-08T05:36:45;33.35;;;16.33;;
47335;SDS011;33068;51.990;5.926;2023-08-08T05:39:11;30.73;;;15.02;;
47335;SDS011;33068;51.990;5.926;2023-08-08T05:41:38;38.03;;;17.35;;
47335;SDS011;33068;51.990;5.926;2023-08-08T05:44:04;30.10;;;15.85;;
47335;SDS011;33068;51.990;5.926;2023-08-08T05:46:31;35.97;;;16.23;;
47335;SDS011;33068;51.990;5.926;2023-08-08T05:48:57;28.88;;;15.15;;
47335;SDS011;33068;51.990;5.926;2023-08-08T05:51:24;34.90;;;14.75;;
47335;SDS011;33068;51.990;5.926;2023-08-08T05:53:50;31.23;;;15.60;;
47335;SDS011;33068;51.990;5.926;2023-08-08T05:56:17;32.40;;;15.48;;
47335;SDS011;33068;51.990;5.926;2023-08-08T05:58:44;27.83;;;14.35;;
47335;SDS011;33068;51.990;5.926;2023-08-08T06:01:10;27.83;;;13.38;;
47335;SDS011;33068;51.990;5.926;2023-08-08T06:03:37;33.53;;;14.00;;
47335;SDS011;33068;51.990;5.926;2023-08-08T06:06:03;24.30;;;12.85;;
47335;SDS011;33068;51.990;5.926;2023-08-08T06:08:29;24.15;;;10.55;;
47335;SDS011;33068;51.990;5.926;2023-08-08T06:10:56;29.80;;;12.93;;
47335;SDS011;33068;51.990;5.926;2023-08-08T06:13:23;34.83;;;13.25;;
47335;SDS011;33068;51.990;5.926;2023-08-08T06:15:50;26.33;;;12.05;;
47335;SDS011;33068;51.990;5.926;2023-08-08T06:18:16;23.45;;;11.30;;
47335;SDS011;33068;51.990;5.926;2023-08-08T06:20:42;26.85;;;12.77;;
47335;SDS011;33068;51.990;5.926;2023-08-08T06:23:09;24.58;;;12.65;;
47335;SDS011;33068;51.990;5.926;2023-08-08T06:25:36;28.05;;;12.25;;
47335;SDS011;33068;51.990;5.926;2023-08-08T06:28:04;23.30;;;11.95;;
47335;SDS011;33068;51.990;5.926;2023-08-08T06:30:31;23.75;;;10.32;;
47335;SDS011;33068;51.990;5.926;2023-08-08T06:32:58;22.15;;;9.25;;
47335;SDS011;33068;51.990;5.926;2023-08-08T06:35:25;20.55;;;8.88;;
47335;SDS011;33068;51.990;5.926;2023-08-08T06:37:51;14.55;;;8.02;;
47335;SDS011;33068;51.990;5.926;2023-08-08T06:40:18;16.67;;;8.70;;
47335;SDS011;33068;51.990;5.926;2023-08-08T06:42:47;17.95;;;7.40;;
47335;SDS011;33068;51.990;5.926;2023-08-08T06:45:13;22.50;;;8.15;;
47335;SDS011;33068;51.990;5.926;2023-08-08T06:47:40;17.63;;;7.97;;
47335;SDS011;33068;51.990;5.926;2023-08-08T06:50:07;15.70;;;7.40;;
47335;SDS011;33068;51.990;5.926;2023-08-08T06:52:35;13.75;;;6.10;;
47335;SDS011;33068;51.990;5.926;2023-08-08T06:55:01;16.83;;;7.35;;
47335;SDS011;33068;51.990;5.926;2023-08-08T06:57:29;14.95;;;6.35;;
47335;SDS011;33068;51.990;5.926;2023-08-08T06:59:58;25.08;;;7.30;;
47335;SDS011;33068;51.990;5.926;2023-08-08T07:02:25;11.27;;;5.80;;
47335;SDS011;33068;51.990;5.926;2023-08-08T07:04:52;11.00;;;5.30;;
47335;SDS011;33068;51.990;5.926;2023-08-08T07:07:19;14.45;;;4.90;;
47335;SDS011;33068;51.990;5.926;2023-08-08T07:09:46;8.35;;;3.60;;
47335;SDS011;33068;51.990;5.926;2023-08-08T07:12:13;12.18;;;4.68;;
47335;SDS011;33068;51.990;5.926;2023-08-08T07:14:39;15.40;;;3.95;;
47335;SDS011;33068;51.990;5.926;2023-08-08T07:17:06;9.55;;;3.22;;
47335;SDS011;33068;51.990;5.926;2023-08-08T07:19:32;8.07;;;2.03;;
47335;SDS011;33068;51.990;5.926;2023-08-08T07:21:59;8.20;;;1.92;;
47335;SDS011;33068;51.990;5.926;2023-08-08T07:24:26;4.05;;;1.50;;
47335;SDS011;33068;51.990;5.926;2023-08-08T07:26:54;6.85;;;1.05;;
47335;SDS011;33068;51.990;5.926;2023-08-08T07:29:20;2.95;;;1.10;;
47335;SDS011;33068;51.990;5.926;2023-08-08T07:31:47;2.55;;;0.70;;
47335;SDS011;33068;51.990;5.926;2023-08-08T07:34:13;6.05;;;0.90;;
47335;SDS011;33068;51.990;5.926;2023-08-08T07:36:40;5.35;;;0.85;;
47335;SDS011;33068;51.990;5.926;2023-08-08T07:39:06;2.70;;;0.63;;
47335;SDS011;33068;51.990;5.926;2023-08-08T07:41:33;3.95;;;0.50;;
47335;SDS011;33068;51.990;5.926;2023-08-08T07:44:00;3.08;;;0.88;;
47335;SDS011;33068;51.990;5.926;2023-08-08T07:46:26;2.13;;;0.43;;
47335;SDS011;33068;51.990;5.926;2023-08-08T07:48:53;2.95;;;0.40;;
47335;SDS011;33068;51.990;5.926;2023-08-08T07:51:19;2.75;;;0.50;;
47335;SDS011;33068;51.990;5.926;2023-08-08T07:53:46;2.55;;;0.90;;
47335;SDS011;33068;51.990;5.926;2023-08-08T07:56:12;5.07;;;0.63;;
47335;SDS011;33068;51.990;5.926;2023-08-08T07:58:39;5.15;;;0.75;;
47335;SDS011;33068;51.990;5.926;2023-08-08T08:01:06;3.50;;;0.57;;
47335;SDS011;33068;51.990;5.926;2023-08-08T08:03:32;5.22;;;0.90;;
47335;SDS011;33068;51.990;5.926;2023-08-08T08:05:59;2.17;;;0.50;;
47335;SDS011;33068;51.990;5.926;2023-08-08T08:08:25;3.17;;;0.30;;
47335;SDS011;33068;51.990;5.926;2023-08-08T08:10:52;2.40;;;0.47;;
47335;SDS011;33068;51.990;5.926;2023-08-08T08:13:19;2.95;;;0.40;;
47335;SDS011;33068;51.990;5.926;2023-08-08T08:15:46;4.07;;;0.50;;
47335;SDS011;33068;51.990;5.926;2023-08-08T08:18:13;3.53;;;0.47;;
47335;SDS011;33068;51.990;5.926;2023-08-08T08:20:43;3.15;;;0.30;;
47335;SDS011;33068;51.990;5.926;2023-08-08T08:23:16;3.35;;;0.30;;
47335;SDS011;33068;51.990;5.926;2023-08-08T08:25:42;1.20;;;0.28;;
47335;SDS011;33068;51.990;5.926;2023-08-08T08:28:08;2.65;;;0.30;;
47335;SDS011;33068;51.990;5.926;2023-08-08T08:30:35;1.13;;;0.35;;
47335;SDS011;33068;51.990;5.926;2023-08-08T08:33:02;2.72;;;0.20;;
47335;SDS011;33068;51.990;5.926;2023-08-08T08:35:32;5.03;;;0.30;;
47335;SDS011;33068;51.990;5.926;2023-08-08T08:37:59;0.73;;;0.20;;
47335;SDS011;33068;51.990;5.926;2023-08-08T08:40:25;4.38;;;0.30;;
47335;SDS011;33068;51.990;5.926;2023-08-08T08:42:53;3.72;;;0.30;;
47335;SDS011;33068;51.990;5.926;2023-08-08T08:45:20;3.75;;;0.30;;
47335;SDS011;33068;51.990;5.926;2023-08-08T08:48:06;1.27;;;0.38;;
47335;SDS011;33068;51.990;5.926;2023-08-08T08:50:41;1.38;;;0.20;;
47335;SDS011;33068;51.990;5.926;2023-08-08T08:53:10;0.98;;;0.22;;
47335;SDS011;33068;51.990;5.926;2023-08-08T08:55:38;3.85;;;0.28;;
47335;SDS011;33068;51.990;5.926;2023-08-08T08:58:05;2.70;;;0.40;;
47335;SDS011;33068;51.990;5.926;2023-08-08T09:00:32;0.60;;;0.20;;
47335;SDS011;33068;51.990;5.926;2023-08-08T09:02:59;1.67;;;0.30;;
47335;SDS011;33068;51.990;5.926;2023-08-08T09:05:26;3.47;;;0.32;;
47335;SDS011;33068;51.990;5.926;2023-08-08T09:07:54;2.22;;;0.20;;
47335;SDS011;33068;51.990;5.926;2023-08-08T09:10:20;2.17;;;0.30;;
47335;SDS011;33068;51.990;5.926;2023-08-08T09:12:47;1.38;;;0.20;;
47335;SDS011;33068;51.990;5.926;2023-08-08T09:15:14;1.00;;;0.17;;
47335;SDS011;33068;51.990;5.926;2023-08-08T09:17:41;4.03;;;0.30;;
47335;SDS011;33068;51.990;5.926;2023-08-08T09:20:08;0.95;;;0.13;;
47335;SDS011;33068;51.990;5.926;2023-08-08T09:22:37;1.10;;;0.20;;
47335;SDS011;33068;51.990;5.926;2023-08-08T09:25:04;0.82;;;0.20;;
47335;SDS011;33068;51.990;5.926;2023-08-08T09:27:33;0.38;;;0.20;;
47335;SDS011;33068;51.990;5.926;2023-08-08T09:29:59;2.00;;;0.30;;
47335;SDS011;33068;51.990;5.926;2023-08-08T09:32:28;2.13;;;0.20;;
47335;SDS011;33068;51.990;5.926;2023-08-08T09:34:55;1.38;;;0.43;;
47335;SDS011;33068;51.990;5.926;2023-08-08T09:37:22;2.53;;;0.47;;
47335;SDS011;33068;51.990;5.926;2023-08-08T09:39:56;1.27;;;0.20;;
47335;SDS011;33068;51.990;5.926;2023-08-08T09:42:23;3.42;;;0.30;;
47335;SDS011;33068;51.990;5.926;2023-08-08T09:44:51;1.98;;;0.30;;
47335;SDS011;33068;51.990;5.926;2023-08-08T09:47:18;0.50;;;0.20;;
47335;SDS011;33068;51.990;5.926;2023-08-08T09:49:44;0.95;;;0.28;;
47335;SDS011;33068;51.990;5.926;2023-08-08T09:52:11;1.27;;;0.20;;
47335;SDS011;33068;51.990;5.926;2023-08-08T09:54:38;0.75;;;0.20;;
47335;SDS011;33068;51.990;5.926;2023-08-08T09:57:06;1.40;;;0.30;;
47335;SDS011;33068;51.990;5.926;2023-08-08T09:59:33;0.65;;;0.20;;
47335;SDS011;33068;51.990;5.926;2023-08-08T10:02:00;1.65;;;0.22;;
47335;SDS011;33068;51.990;5.926;2023-08-08T10:04:27;1.92;;;0.40;;
47335;SDS011;33068;51.990;5.926;2023-08-08T10:06:54;3.03;;;0.20;;
47335;SDS011;33068;51.990;5.926;2023-08-08T10:09:21;1.85;;;0.38;;
47335;SDS011;33068;51.990;5.926;2023-08-08T10:11:48;0.60;;;0.15;;
47335;SDS011;33068;51.990;5.926;2023-08-08T10:14:22;0.47;;;0.10;;
47335;SDS011;33068;51.990;5.926;2023-08-08T10:16:57;1.58;;;0.35;;
47335;SDS011;33068;51.990;5.926;2023-08-08T10:19:24;3.10;;;0.20;;
47335;SDS011;33068;51.990;5.926;2023-08-08T10:21:55;0.40;;;0.20;;
47335;SDS011;33068;51.990;5.926;2023-08-08T10:24:24;0.68;;;0.20;;
47335;SDS011;33068;51.990;5.926;2023-08-08T10:26:51;1.58;;;0.30;;
47335;SDS011;33068;51.990;5.926;2023-08-08T10:29:19;17.98;;;1.50;;
47335;SDS011;33068;51.990;5.926;2023-08-08T10:31:50;6.60;;;0.60;;
47335;SDS011;33068;51.990;5.926;2023-08-08T10:34:19;4.35;;;0.57;;
47335;SDS011;33068;51.990;5.926;2023-08-08T10:36:50;5.38;;;0.40;;
47335;SDS011;33068;51.990;5.926;2023-08-08T10:39:18;2.20;;;0.70;;
47335;SDS011;33068;51.990;5.926;2023-08-08T10:41:47;2.20;;;0.88;;
47335;SDS011;33068;51.990;5.926;2023-08-08T10:44:20;3.33;;;0.40;;
47335;SDS011;33068;51.990;5.926;2023-08-08T10:46:50;0.93;;;0.50;;
47335;SDS011;33068;51.990;5.926;2023-08-08T10:49:19;2.00;;;0.35;;
47335;SDS011;33068;51.990;5.926;2023-08-08T10:51:47;1.88;;;0.25;;
47335;SDS011;33068;51.990;5.926;2023-08-08T10:54:15;0.60;;;0.30;;
47335;SDS011;33068;51.990;5.926;2023-08-08T10:56:47;0.60;;;0.20;;
47335;SDS011;33068;51.990;5.926;2023-08-08T10:59:15;1.17;;;0.30;;
47335;SDS011;33068;51.990;5.926;2023-08-08T11:01:43;1.35;;;0.45;;
47335;SDS011;33068;51.990;5.926;2023-08-08T11:04:12;0.82;;;0.30;;
47335;SDS011;33068;51.990;5.926;2023-08-08T11:06:39;0.50;;;0.25;;
47335;SDS011;33068;51.990;5.926;2023-08-08T11:09:06;0.30;;;0.20;;
47335;SDS011;33068;51.990;5.926;2023-08-08T11:11:36;2.55;;;0.50;;
47335;SDS011;33068;51.990;5.926;2023-08-08T11:14:08;3.38;;;0.43;;
47335;SDS011;33068;51.990;5.926;2023-08-08T11:16:36;1.60;;;0.32;;
47335;SDS011;33068;51.990;5.926;2023-08-08T11:19:04;4.82;;;0.40;;
47335;SDS011;33068;51.990;5.926;2023-08-08T11:21:32;2.40;;;0.40;;
47335;SDS011;33068;51.990;5.926;2023-08-08T11:24:01;0.43;;;0.40;;
47335;SDS011;33068;51.990;5.926;2023-08-08T11:26:27;2.80;;;0.40;;
47335;SDS011;33068;51.990;5.926;2023-08-08T11:28:57;1.95;;;0.30;;
47335;SDS011;33068;51.990;5.926;2023-08-08T11:31:27;1.20;;;0.20;;
47335;SDS011;33068;51.990;5.926;2023-08-08T11:33:58;1.05;;;0.20;;
47335;SDS011;33068;51.990;5.926;2023-08-08T11:36:26;1.00;;;0.30;;
47335;SDS011;33068;51.990;5.926;2023-08-08T11:39:03;1.67;;;0.52;;
47335;SDS011;33068;51.990;5.926;2023-08-08T11:41:33;3.00;;;0.30;;
47335;SDS011;33068;51.990;5.926;2023-08-08T11:44:01;2.35;;;0.30;;
47335;SDS011;33068;51.990;5.926;2023-08-08T11:46:29;3.22;;;0.40;;
47335;SDS011;33068;51.990;5.926;2023-08-08T11:49:01;1.17;;;0.30;;
47335;SDS011;33068;51.990;5.926;2023-08-08T11:51:29;1.40;;;0.30;;
47335;SDS011;33068;51.990;5.926;2023-08-08T11:53:57;4.07;;;0.40;;
47335;SDS011;33068;51.990;5.926;2023-08-08T11:56:26;1.83;;;0.60;;
47335;SDS011;33068;51.990;5.926;2023-08-08T11:58:54;1.58;;;0.47;;
47335;SDS011;33068;51.990;5.926;2023-08-08T12:01:21;3.30;;;0.50;;
47335;SDS011;33068;51.990;5.926;2023-08-08T12:03:49;2.40;;;0.52;;
47335;SDS011;33068;51.990;5.926;2023-08-08T12:06:18;1.65;;;0.40;;
47335;SDS011;33068;51.990;5.926;2023-08-08T12:08:46;0.85;;;0.30;;
47335;SDS011;33068;51.990;5.926;2023-08-08T12:11:15;1.60;;;0.43;;
47335;SDS011;33068;51.990;5.926;2023-08-08T12:13:42;1.67;;;0.50;;
47335;SDS011;33068;51.990;5.926;2023-08-08T12:16:10;0.93;;;0.32;;
47335;SDS011;33068;51.990;5.926;2023-08-08T12:18:38;2.67;;;0.30;;
47335;SDS011;33068;51.990;5.926;2023-08-08T12:21:06;0.55;;;0.35;;
47335;SDS011;33068;51.990;5.926;2023-08-08T12:23:34;0.47;;;0.30;;
47335;SDS011;33068;51.990;5.926;2023-08-08T12:26:03;8.15;;;0.73;;
47335;SDS011;33068;51.990;5.926;2023-08-08T12:28:34;1.73;;;0.45;;
47335;SDS011;33068;51.990;5.926;2023-08-08T12:31:00;2.22;;;0.47;;
47335;SDS011;33068;51.990;5.926;2023-08-08T12:33:27;0.40;;;0.30;;
47335;SDS011;33068;51.990;5.926;2023-08-08T12:35:54;0.68;;;0.30;;
47335;SDS011;33068;51.990;5.926;2023-08-08T12:38:23;2.15;;;0.40;;
47335;SDS011;33068;51.990;5.926;2023-08-08T12:40:50;3.72;;;0.65;;
47335;SDS011;33068;51.990;5.926;2023-08-08T12:43:17;0.57;;;0.35;;
47335;SDS011;33068;51.990;5.926;2023-08-08T12:45:45;1.45;;;0.30;;
47335;SDS011;33068;51.990;5.926;2023-08-08T12:48:11;0.50;;;0.40;;
47335;SDS011;33068;51.990;5.926;2023-08-08T12:50:38;4.07;;;0.40;;
47335;SDS011;33068;51.990;5.926;2023-08-08T12:53:10;2.15;;;0.40;;
47335;SDS011;33068;51.990;5.926;2023-08-08T12:55:38;1.58;;;0.50;;
47335;SDS011;33068;51.990;5.926;2023-08-08T12:58:10;1.48;;;0.40;;
47335;SDS011;33068;51.990;5.926;2023-08-08T13:00:44;1.00;;;0.40;;
47335;SDS011;33068;51.990;5.926;2023-08-08T13:03:15;0.95;;;0.30;;
47335;SDS011;33068;51.990;5.926;2023-08-08T13:05:43;0.82;;;0.30;;
47335;SDS011;33068;51.990;5.926;2023-08-08T13:08:09;1.83;;;0.40;;
47335;SDS011;33068;51.990;5.926;2023-08-08T13:10:40;0.80;;;0.35;;
47335;SDS011;33068;51.990;5.926;2023-08-08T13:13:08;0.90;;;0.40;;
47335;SDS011;33068;51.990;5.926;2023-08-08T13:15:37;0.80;;;0.32;;
47335;SDS011;33068;51.990;5.926;2023-08-08T13:18:05;0.88;;;0.35;;
47335;SDS011;33068;51.990;5.926;2023-08-08T13:20:32;1.15;;;0.45;;
47335;SDS011;33068;51.990;5.926;2023-08-08T13:22:59;1.70;;;0.40;;
47335;SDS011;33068;51.990;5.926;2023-08-08T13:25:27;1.00;;;0.52;;
47335;SDS011;33068;51.990;5.926;2023-08-08T13:28:19;0.40;;;0.30;;
47335;SDS011;33068;51.990;5.926;2023-08-08T13:31:31;1.45;;;0.30;;
47335;SDS011;33068;51.990;5.926;2023-08-08T13:33:58;2.15;;;0.60;;
47335;SDS011;33068;51.990;5.926;2023-08-08T13:36:25;0.30;;;0.30;;
47335;SDS011;33068;51.990;5.926;2023-08-08T13:38:54;1.75;;;0.40;;
47335;SDS011;33068;51.990;5.926;2023-08-08T13:41:21;0.50;;;0.40;;
47335;SDS011;33068;51.990;5.926;2023-08-08T13:43:48;1.60;;;0.52;;
47335;SDS011;33068;51.990;5.926;2023-08-08T13:46:14;1.30;;;0.30;;
47335;SDS011;33068;51.990;5.926;2023-08-08T13:48:41;1.17;;;0.57;;
47335;SDS011;33068;51.990;5.926;2023-08-08T13:51:08;2.42;;;0.47;;
47335;SDS011;33068;51.990;5.926;2023-08-08T13:53:35;0.45;;;0.30;;
47335;SDS011;33068;51.990;5.926;2023-08-08T13:56:02;2.50;;;0.50;;
47335;SDS011;33068;51.990;5.926;2023-08-08T13:58:29;2.75;;;0.50;;
47335;SDS011;33068;51.990;5.926;2023-08-08T14:00:55;3.75;;;0.40;;
47335;SDS011;33068;51.990;5.926;2023-08-08T14:03:22;2.75;;;0.90;;
47335;SDS011;33068;51.990;5.926;2023-08-08T14:05:54;4.57;;;1.30;;
47335;SDS011;33068;51.990;5.926;2023-08-08T14:08:21;4.88;;;1.10;;
47335;SDS011;33068;51.990;5.926;2023-08-08T14:10:48;1.70;;;1.40;;
47335;SDS011;33068;51.990;5.926;2023-08-08T14:13:14;3.35;;;1.17;;
47335;SDS011;33068;51.990;5.926;2023-08-08T14:15:41;3.80;;;1.60;;
47335;SDS011;33068;51.990;5.926;2023-08-08T14:18:07;1.77;;;1.02;;
47335;SDS011;33068;51.990;5.926;2023-08-08T14:20:39;2.80;;;1.50;;
47335;SDS011;33068;51.990;5.926;2023-08-08T14:23:06;3.13;;;1.33;;
47335;SDS011;33068;51.990;5.926;2023-08-08T14:25:40;2.60;;;1.20;;
47335;SDS011;33068;51.990;5.926;2023-08-08T14:28:07;3.10;;;1.25;;
47335;SDS011;33068;51.990;5.926;2023-08-08T14:30:34;2.40;;;1.00;;
47335;SDS011;33068;51.990;5.926;2023-08-08T14:33:03;4.88;;;1.40;;
47335;SDS011;33068;51.990;5.926;2023-08-08T14:35:29;2.00;;;0.63;;
47335;SDS011;33068;51.990;5.926;2023-08-08T14:37:56;2.22;;;1.23;;
47335;SDS011;33068;51.990;5.926;2023-08-08T14:40:22;1.50;;;0.65;;
47335;SDS011;33068;51.990;5.926;2023-08-08T14:42:51;2.80;;;1.02;;
47335;SDS011;33068;51.990;5.926;2023-08-08T14:45:18;6.40;;;2.63;;